sensor_id;sensor_type;location;lat;lon;timestamp;pressure;altitude;pressure_sealevel;temperature;humidity
11053;BME280;55230;42.602;23.470;2022-12-18T00:02:01;94191.84;;;6.22;100.00
11053;BME280;55230;42.602;23.470;2022-12-18T00:04:27;94243.19;;;6.47;100.00
11053;BME280;55230;42.602;23.470;2022-12-18T00:06:55;94189.81;;;5.99;100.00
11053;BME280;55230;42.602;23.470;2022-12-18T00:09:22;94245.22;;;6.36;100.00
11053;BME280;55230;42.602;23.470;2022-12-18T00:11:49;94137.22;;;5.48;100.00
11053;BME280;55230;42.602;23.470;2022-12-18T00:14:16;94259.09;;;6.27;100.00
11053;BME280;55230;42.602;23.470;2022-12-18T00:16:43;94001.22;;;4.39;100.00
11053;BME280;55230;42.602;23.470;2022-12-18T00:19:10;94267.78;;;6.05;100.00
11053;BME280;55230;42.602;23.470;2022-12-18T00:21:37;94270.88;;;6.00;100.00
11053;BME280;55230;42.602;23.470;2022-12-18T00:24:05;94274.97;;;6.11;100.00
11053;BME280;55230;42.602;23.470;2022-12-18T00:26:33;94273.50;;;6.07;100.00
11053;BME280;55230;42.602;23.470;2022-12-18T00:29:02;94279.16;;;6.16;100.00
11053;BME280;55230;42.602;23.470;2022-12-18T00:31:30;94212.25;;;5.34;100.00
11053;BME280;55230;42.602;23.470;2022-12-18T00:33:57;94218.50;;;5.58;100.00
11053;BME280;55230;42.602;23.470;2022-12-18T00:36:26;94294.66;;;5.94;100.00
11053;BME280;55230;42.602;23.470;2022-12-18T00:38:54;94291.22;;;5.94;100.00
11053;BME280;55230;42.602;23.470;2022-12-18T00:41:23;94290.06;;;5.95;100.00
11053;BME280;55230;42.602;23.470;2022-12-18T00:44:09;94287.13;;;5.78;100.00
11053;BME280;55230;42.602;23.470;2022-12-18T00:46:36;94221.06;;;5.31;100.00
11053;BME280;55230;42.602;23.470;2022-12-18T00:49:03;94289.44;;;5.76;100.00
11053;BME280;55230;42.602;23.470;2022-12-18T00:51:30;94289.03;;;5.81;100.00
11053;BME280;55230;42.602;23.470;2022-12-18T00:53:57;94293.59;;;5.81;100.00
11053;BME280;55230;42.602;23.470;2022-12-18T00:56:25;94297.91;;;5.68;100.00
11053;BME280;55230;42.602;23.470;2022-12-18T00:58:52;94294.13;;;5.65;100.00
11053;BME280;55230;42.602;23.470;2022-12-18T01:01:18;94245.66;;;5.12;100.00
11053;BME280;55230;42.602;23.470;2022-12-18T01:03:45;93928.19;;;3.13;100.00
11053;BME280;55230;42.602;23.470;2022-12-18T01:06:13;94223.53;;;5.08;100.00
11053;BME280;55230;42.602;23.470;2022-12-18T01:08:40;94304.09;;;5.61;100.00
11053;BME280;55230;42.602;23.470;2022-12-18T01:11:08;94304.13;;;5.58;100.00
11053;BME280;55230;42.602;23.470;2022-12-18T01:13:37;94152.28;;;4.40;100.00
11053;BME280;55230;42.602;23.470;2022-12-18T01:16:04;94317.19;;;5.45;100.00
11053;BME280;55230;42.602;23.470;2022-12-18T01:18:31;94279.91;;;5.28;100.00
11053;BME280;55230;42.602;23.470;2022-12-18T01:20:58;94215.94;;;4.45;100.00
11053;BME280;55230;42.602;23.470;2022-12-18T01:23:25;94033.94;;;3.23;100.00
11053;BME280;55230;42.602;23.470;2022-12-18T01:25:51;94244.59;;;4.99;100.00
11053;BME280;55230;42.602;23.470;2022-12-18T01:28:18;94062.69;;;3.74;100.00
11053;BME280;55230;42.602;23.470;2022-12-18T01:30:46;94291.09;;;5.12;100.00
11053;BME280;55230;42.602;23.470;2022-12-18T01:33:13;94229.16;;;4.66;100.00
11053;BME280;55230;42.602;23.470;2022-12-18T01:35:41;94310.28;;;5.00;100.00
11053;BME280;55230;42.602;23.470;2022-12-18T01:38:08;94234.22;;;4.50;100.00
11053;BME280;55230;42.602;23.470;2022-12-18T01:40:35;94190.41;;;4.37;100.00
11053;BME280;55230;42.602;23.470;2022-12-18T01:43:01;94313.56;;;5.22;100.00
11053;BME280;55230;42.602;23.470;2022-12-18T01:45:29;94260.75;;;4.78;100.00
11053;BME280;55230;42.602;23.470;2022-12-18T01:47:59;94343.38;;;5.20;100.00
11053;BME280;55230;42.602;23.470;2022-12-18T01:50:30;94236.22;;;4.28;100.00
11053;BME280;55230;42.602;23.470;2022-12-18T01:53:02;94335.00;;;5.11;100.00
11053;BME280;55230;42.602;23.470;2022-12-18T01:55:32;94217.94;;;4.23;100.00
11053;BME280;55230;42.602;23.470;2022-12-18T01:58:01;94350.41;;;4.93;100.00
11053;BME280;55230;42.602;23.470;2022-12-18T02:00:29;93818.44;;;1.49;100.00
11053;BME280;55230;42.602;23.470;2022-12-18T02:02:57;94342.75;;;4.95;100.00
11053;BME280;55230;42.602;23.470;2022-12-18T02:05:34;94317.38;;;4.52;100.00
11053;BME280;55230;42.602;23.470;2022-12-18T02:08:08;94307.91;;;4.33;100.00
11053;BME280;55230;42.602;23.470;2022-12-18T02:10:41;94356.59;;;4.72;100.00
11053;BME280;55230;42.602;23.470;2022-12-18T02:13:15;94355.84;;;4.65;100.00
11053;BME280;55230;42.602;23.470;2022-12-18T02:15:51;94307.19;;;4.26;100.00
11053;BME280;55230;42.602;23.470;2022-12-18T02:18:26;94354.34;;;4.64;100.00
11053;BME280;55230;42.602;23.470;2022-12-18T02:20:58;94158.09;;;3.10;100.00
11053;BME280;55230;42.602;23.470;2022-12-18T02:23:41;94362.00;;;4.55;100.00
11053;BME280;55230;42.602;23.470;2022-12-18T02:26:16;94358.94;;;4.53;100.00
11053;BME280;55230;42.602;23.470;2022-12-18T02:28:49;94347.56;;;4.35;100.00
11053;BME280;55230;42.602;23.470;2022-12-18T02:31:21;94366.19;;;4.56;100.00
11053;BME280;55230;42.602;23.470;2022-12-18T02:33:50;94297.31;;;4.05;100.00
11053;BME280;55230;42.602;23.470;2022-12-18T02:36:20;94366.97;;;4.53;100.00
11053;BME280;55230;42.602;23.470;2022-12-18T02:38:49;94363.13;;;4.61;100.00
11053;BME280;55230;42.602;23.470;2022-12-18T02:41:19;93957.03;;;1.72;100.00
11053;BME280;55230;42.602;23.470;2022-12-18T02:43:47;94241.38;;;3.74;100.00
11053;BME280;55230;42.602;23.470;2022-12-18T02:46:32;94372.28;;;4.60;100.00
11053;BME280;55230;42.602;23.470;2022-12-18T02:49:06;94377.66;;;4.53;100.00
11053;BME280;55230;42.602;23.470;2022-12-18T02:51:43;94315.25;;;3.91;100.00
11053;BME280;55230;42.602;23.470;2022-12-18T02:54:22;94384.91;;;4.49;100.00
11053;BME280;55230;42.602;23.470;2022-12-18T02:56:56;94405.88;;;4.47;100.00
11053;BME280;55230;42.602;23.470;2022-12-18T02:59:30;94376.16;;;4.45;100.00
11053;BME280;55230;42.602;23.470;2022-12-18T03:02:16;94376.16;;;4.38;100.00
11053;BME280;55230;42.602;23.470;2022-12-18T03:04:47;93657.50;;;-0.42;100.00
11053;BME280;55230;42.602;23.470;2022-12-18T03:07:27;94383.41;;;4.37;100.00
11053;BME280;55230;42.602;23.470;2022-12-18T03:09:55;94336.22;;;3.96;100.00
11053;BME280;55230;42.602;23.470;2022-12-18T03:12:28;94405.16;;;4.39;100.00
11053;BME280;55230;42.602;23.470;2022-12-18T03:14:59;94157.38;;;2.81;100.00
11053;BME280;55230;42.602;23.470;2022-12-18T03:17:30;94373.56;;;3.96;100.00
11053;BME280;55230;42.602;23.470;2022-12-18T03:20:02;94411.63;;;4.42;100.00
11053;BME280;55230;42.602;23.470;2022-12-18T03:22:31;94395.25;;;4.40;100.00
11053;BME280;55230;42.602;23.470;2022-12-18T03:25:01;94402.09;;;4.34;100.00
11053;BME280;55230;42.602;23.470;2022-12-18T03:27:31;94352.97;;;4.07;100.00
11053;BME280;55230;42.602;23.470;2022-12-18T03:30:03;94403.63;;;4.38;100.00
11053;BME280;55230;42.602;23.470;2022-12-18T03:32:36;94408.19;;;4.52;100.00
11053;BME280;55230;42.602;23.470;2022-12-18T03:35:06;94358.72;;;3.52;100.00
11053;BME280;55230;42.602;23.470;2022-12-18T03:37:35;94421.94;;;4.36;100.00
11053;BME280;55230;42.602;23.470;2022-12-18T03:40:02;94325.94;;;3.77;100.00
11053;BME280;55230;42.602;23.470;2022-12-18T03:42:33;94334.72;;;3.84;100.00
11053;BME280;55230;42.602;23.470;2022-12-18T03:45:09;94352.63;;;3.84;100.00
11053;BME280;55230;42.602;23.470;2022-12-18T03:47:42;94431.50;;;4.13;100.00
11053;BME280;55230;42.602;23.470;2022-12-18T03:50:17;94433.78;;;4.25;100.00
11053;BME280;55230;42.602;23.470;2022-12-18T03:52:50;94451.34;;;4.12;100.00
11053;BME280;55230;42.602;23.470;2022-12-18T03:55:20;94330.91;;;3.18;100.00
11053;BME280;55230;42.602;23.470;2022-12-18T03:57:51;94203.63;;;2.06;100.00
11053;BME280;55230;42.602;23.470;2022-12-18T04:00:19;94315.28;;;3.17;100.00
11053;BME280;55230;42.602;23.470;2022-12-18T04:02:50;94443.31;;;4.05;100.00
11053;BME280;55230;42.602;23.470;2022-12-18T04:05:19;94378.53;;;3.62;100.00
11053;BME280;55230;42.602;23.470;2022-12-18T04:07:47;94449.81;;;4.00;100.00
11053;BME280;55230;42.602;23.470;2022-12-18T04:10:16;94458.19;;;3.95;100.00
11053;BME280;55230;42.602;23.470;2022-12-18T04:12:43;94452.88;;;3.92;100.00
11053;BME280;55230;42.602;23.470;2022-12-18T04:15:12;94388.81;;;3.46;100.00
11053;BME280;55230;42.602;23.470;2022-12-18T04:17:43;94455.13;;;3.83;100.00
11053;BME280;55230;42.602;23.470;2022-12-18T04:20:13;94486.38;;;3.86;100.00
11053;BME280;55230;42.602;23.470;2022-12-18T04:22:39;94454.75;;;3.81;100.00
11053;BME280;55230;42.602;23.470;2022-12-18T04:25:07;94452.09;;;3.84;100.00
11053;BME280;55230;42.602;23.470;2022-12-18T04:27:34;94465.44;;;3.81;100.00
11053;BME280;55230;42.602;23.470;2022-12-18T04:30:01;94463.88;;;3.80;100.00
11053;BME280;55230;42.602;23.470;2022-12-18T04:32:29;94360.94;;;3.01;100.00
11053;BME280;55230;42.602;23.470;2022-12-18T04:34:56;94475.72;;;3.79;100.00
11053;BME280;55230;42.602;23.470;2022-12-18T04:37:22;94468.84;;;3.78;100.00
11053;BME280;55230;42.602;23.470;2022-12-18T04:39:49;94405.53;;;3.22;100.00
11053;BME280;55230;42.602;23.470;2022-12-18T04:42:16;94416.22;;;3.32;100.00
11053;BME280;55230;42.602;23.470;2022-12-18T04:44:43;94475.31;;;3.66;100.00
11053;BME280;55230;42.602;23.470;2022-12-18T04:47:09;94481.03;;;3.68;100.00
11053;BME280;55230;42.602;23.470;2022-12-18T04:49:38;94481.03;;;3.72;100.00
11053;BME280;55230;42.602;23.470;2022-12-18T04:52:04;94485.25;;;3.73;100.00
11053;BME280;55230;42.602;23.470;2022-12-18T04:54:31;94370.75;;;2.80;100.00
11053;BME280;55230;42.602;23.470;2022-12-18T04:56:58;94494.72;;;3.63;100.00
11053;BME280;55230;42.602;23.470;2022-12-18T04:59:24;94508.06;;;3.63;100.00
11053;BME280;55230;42.602;23.470;2022-12-18T05:01:51;94518.31;;;3.50;100.00
11053;BME280;55230;42.602;23.470;2022-12-18T05:04:18;94521.38;;;3.52;100.00
11053;BME280;55230;42.602;23.470;2022-12-18T05:06:46;94506.13;;;3.49;100.00
11053;BME280;55230;42.602;23.470;2022-12-18T05:09:13;94496.59;;;3.45;100.00
11053;BME280;55230;42.602;23.470;2022-12-18T05:11:40;94519.88;;;3.59;100.00
11053;BME280;55230;42.602;23.470;2022-12-18T05:14:06;94524.44;;;3.54;100.00
11053;BME280;55230;42.602;23.470;2022-12-18T05:16:33;94430.19;;;2.94;100.00
11053;BME280;55230;42.602;23.470;2022-12-18T05:19:00;94538.16;;;3.57;100.00
11053;BME280;55230;42.602;23.470;2022-12-18T05:21:27;94534.34;;;3.65;100.00
11053;BME280;55230;42.602;23.470;2022-12-18T05:23:55;94543.50;;;3.64;100.00
11053;BME280;55230;42.602;23.470;2022-12-18T05:26:21;94331.31;;;2.10;100.00
11053;BME280;55230;42.602;23.470;2022-12-18T05:28:48;94544.22;;;3.50;100.00
11053;BME280;55230;42.602;23.470;2022-12-18T05:31:15;94555.25;;;3.45;100.00
11053;BME280;55230;42.602;23.470;2022-12-18T05:33:42;94560.19;;;3.43;100.00
11053;BME280;55230;42.602;23.470;2022-12-18T05:36:09;94539.94;;;3.24;100.00
11053;BME280;55230;42.602;23.470;2022-12-18T05:38:37;94512.03;;;3.01;100.00
11053;BME280;55230;42.602;23.470;2022-12-18T05:41:07;94574.25;;;3.36;100.00
11053;BME280;55230;42.602;23.470;2022-12-18T05:43:35;94569.28;;;3.38;100.00
11053;BME280;55230;42.602;23.470;2022-12-18T05:46:06;94571.59;;;3.36;100.00
11053;BME280;55230;42.602;23.470;2022-12-18T05:48:33;94588.31;;;3.33;100.00
11053;BME280;55230;42.602;23.470;2022-12-18T05:51:04;94585.59;;;3.23;100.00
11053;BME280;55230;42.602;23.470;2022-12-18T05:53:32;94576.38;;;3.06;100.00
11053;BME280;55230;42.602;23.470;2022-12-18T05:56:00;94587.53;;;3.22;100.00
11053;BME280;55230;42.602;23.470;2022-12-18T05:58:30;94521.75;;;2.69;100.00
11053;BME280;55230;42.602;23.470;2022-12-18T06:00:57;94529.47;;;2.88;100.00
11053;BME280;55230;42.602;23.470;2022-12-18T06:03:24;94590.56;;;3.28;100.00
11053;BME280;55230;42.602;23.470;2022-12-18T06:05:51;94590.97;;;3.30;100.00
11053;BME280;55230;42.602;23.470;2022-12-18T06:08:17;94434.38;;;2.20;100.00
11053;BME280;55230;42.602;23.470;2022-12-18T06:10:49;94069.50;;;-0.12;100.00
11053;BME280;55230;42.602;23.470;2022-12-18T06:13:16;94461.03;;;1.80;100.00
11053;BME280;55230;42.602;23.470;2022-12-18T06:15:45;94602.78;;;3.32;100.00
11053;BME280;55230;42.602;23.470;2022-12-18T06:18:11;94616.03;;;3.18;100.00
11053;BME280;55230;42.602;23.470;2022-12-18T06:20:38;94622.56;;;3.24;100.00
11053;BME280;55230;42.602;23.470;2022-12-18T06:23:06;94251.00;;;0.75;100.00
11053;BME280;55230;42.602;23.470;2022-12-18T06:25:33;94593.88;;;3.04;100.00
11053;BME280;55230;42.602;23.470;2022-12-18T06:28:00;94404.38;;;1.69;100.00
11053;BME280;55230;42.602;23.470;2022-12-18T06:30:27;94625.63;;;3.30;100.00
11053;BME280;55230;42.602;23.470;2022-12-18T06:32:55;94627.53;;;3.29;100.00
11053;BME280;55230;42.602;23.470;2022-12-18T06:35:21;94628.59;;;3.18;100.00
11053;BME280;55230;42.602;23.470;2022-12-18T06:37:48;94560.19;;;2.75;100.00
11053;BME280;55230;42.602;23.470;2022-12-18T06:40:15;94209.47;;;0.13;100.00
11053;BME280;55230;42.602;23.470;2022-12-18T06:42:42;94146.88;;;0.01;100.00
11053;BME280;55230;42.602;23.470;2022-12-18T06:45:09;94638.13;;;3.19;100.00
11053;BME280;55230;42.602;23.470;2022-12-18T06:47:36;94639.28;;;3.21;100.00
11053;BME280;55230;42.602;23.470;2022-12-18T06:50:05;94497.97;;;2.39;100.00
11053;BME280;55230;42.602;23.470;2022-12-18T06:52:32;94632.91;;;3.36;100.00
11053;BME280;55230;42.602;23.470;2022-12-18T06:55:00;94569.41;;;2.84;100.00
11053;BME280;55230;42.602;23.470;2022-12-18T06:57:26;94489.44;;;2.16;100.00
11053;BME280;55230;42.602;23.470;2022-12-18T06:59:53;94641.22;;;3.24;100.00
11053;BME280;55230;42.602;23.470;2022-12-18T07:02:20;94438.31;;;1.89;100.00
11053;BME280;55230;42.602;23.470;2022-12-18T07:04:49;94608.75;;;3.08;100.00
11053;BME280;55230;42.602;23.470;2022-12-18T07:07:17;94651.19;;;3.38;100.00
11053;BME280;55230;42.602;23.470;2022-12-18T07:09:44;94512.59;;;2.12;100.00
11053;BME280;55230;42.602;23.470;2022-12-18T07:12:11;94591.13;;;2.86;100.00
11053;BME280;55230;42.602;23.470;2022-12-18T07:14:37;94361.88;;;0.88;100.00
11053;BME280;55230;42.602;23.470;2022-12-18T07:17:04;94683.47;;;3.22;100.00
11053;BME280;55230;42.602;23.470;2022-12-18T07:19:31;94487.06;;;2.04;100.00
11053;BME280;55230;42.602;23.470;2022-12-18T07:21:58;94667.88;;;3.28;100.00
11053;BME280;55230;42.602;23.470;2022-12-18T07:24:26;94682.97;;;3.06;100.00
11053;BME280;55230;42.602;23.470;2022-12-18T07:26:53;94607.81;;;2.83;100.00
11053;BME280;55230;42.602;23.470;2022-12-18T07:29:20;94704.88;;;3.33;100.00
11053;BME280;55230;42.602;23.470;2022-12-18T07:31:47;94651.00;;;3.10;100.00
11053;BME280;55230;42.602;23.470;2022-12-18T07:34:14;94579.16;;;2.15;100.00
11053;BME280;55230;42.602;23.470;2022-12-18T07:36:41;94619.59;;;2.79;100.00
11053;BME280;55230;42.602;23.470;2022-12-18T07:39:08;94152.84;;;-0.09;100.00
11053;BME280;55230;42.602;23.470;2022-12-18T07:41:36;94444.88;;;1.55;100.00
11053;BME280;55230;42.602;23.470;2022-12-18T07:44:03;94476.06;;;1.62;100.00
11053;BME280;55230;42.602;23.470;2022-12-18T07:46:30;94505.34;;;2.09;100.00
11053;BME280;55230;42.602;23.470;2022-12-18T07:48:57;94698.72;;;3.29;100.00
11053;BME280;55230;42.602;23.470;2022-12-18T07:51:23;94394.56;;;1.33;100.00
11053;BME280;55230;42.602;23.470;2022-12-18T07:53:50;94274.28;;;0.48;100.00
11053;BME280;55230;42.602;23.470;2022-12-18T07:56:17;94710.16;;;3.29;100.00
11053;BME280;55230;42.602;23.470;2022-12-18T07:58:48;94705.16;;;3.21;100.00
11053;BME280;55230;42.602;23.470;2022-12-18T08:01:14;94392.81;;;1.07;100.00
11053;BME280;55230;42.602;23.470;2022-12-18T08:03:41;94354.56;;;0.78;100.00
11053;BME280;55230;42.602;23.470;2022-12-18T08:06:09;94716.53;;;3.18;100.00
11053;BME280;55230;42.602;23.470;2022-12-18T08:08:36;94726.50;;;3.28;100.00
11053;BME280;55230;42.602;23.470;2022-12-18T08:11:03;94661.06;;;2.80;100.00
11053;BME280;55230;42.602;23.470;2022-12-18T08:13:30;94743.28;;;3.28;100.00
11053;BME280;55230;42.602;23.470;2022-12-18T08:16:01;94595.72;;;2.42;100.00
11053;BME280;55230;42.602;23.470;2022-12-18T08:18:29;94615.94;;;2.50;100.00
11053;BME280;55230;42.602;23.470;2022-12-18T08:20:55;94744.81;;;3.29;100.00
11053;BME280;55230;42.602;23.470;2022-12-18T08:23:27;94749.00;;;3.30;100.00
11053;BME280;55230;42.602;23.470;2022-12-18T08:25:54;94626.91;;;2.42;100.00
11053;BME280;55230;42.602;23.470;2022-12-18T08:28:21;94548.44;;;1.85;100.00
11053;BME280;55230;42.602;23.470;2022-12-18T08:30:51;94747.38;;;3.15;100.00
11053;BME280;55230;42.602;23.470;2022-12-18T08:33:19;94723.34;;;3.08;100.00
11053;BME280;55230;42.602;23.470;2022-12-18T08:35:46;94766.75;;;3.09;100.00
11053;BME280;55230;42.602;23.470;2022-12-18T08:38:13;94759.63;;;3.23;100.00
11053;BME280;55230;42.602;23.470;2022-12-18T08:40:39;94735.38;;;2.95;100.00
11053;BME280;55230;42.602;23.470;2022-12-18T08:43:09;94622.59;;;2.30;100.00
11053;BME280;55230;42.602;23.470;2022-12-18T08:45:53;94751.59;;;3.20;100.00
11053;BME280;55230;42.602;23.470;2022-12-18T08:48:24;94754.22;;;3.16;100.00
11053;BME280;55230;42.602;23.470;2022-12-18T08:50:54;94678.81;;;2.65;100.00
11053;BME280;55230;42.602;23.470;2022-12-18T08:53:25;94750.75;;;3.12;100.00
11053;BME280;55230;42.602;23.470;2022-12-18T08:55:52;94759.19;;;3.18;100.00
11053;BME280;55230;42.602;23.470;2022-12-18T08:58:19;94687.34;;;2.81;100.00
11053;BME280;55230;42.602;23.470;2022-12-18T09:00:46;94760.34;;;3.20;100.00
11053;BME280;55230;42.602;23.470;2022-12-18T09:03:13;94630.63;;;2.33;100.00
11053;BME280;55230;42.602;23.470;2022-12-18T09:05:41;94592.78;;;2.10;100.00
11053;BME280;55230;42.602;23.470;2022-12-18T09:08:08;94691.66;;;2.96;100.00
11053;BME280;55230;42.602;23.470;2022-12-18T09:10:41;94774.88;;;3.30;100.00
11053;BME280;55230;42.602;23.470;2022-12-18T09:13:09;94464.53;;;1.47;100.00
11053;BME280;55230;42.602;23.470;2022-12-18T09:15:40;94770.34;;;3.30;100.00
11053;BME280;55230;42.602;23.470;2022-12-18T09:18:07;94759.63;;;3.23;100.00
11053;BME280;55230;42.602;23.470;2022-12-18T09:20:34;94650.25;;;2.59;100.00
11053;BME280;55230;42.602;23.470;2022-12-18T09:23:03;94483.66;;;1.60;100.00
11053;BME280;55230;42.602;23.470;2022-12-18T09:25:31;94753.28;;;3.42;100.00
11053;BME280;55230;42.602;23.470;2022-12-18T09:28:01;94625.94;;;2.64;100.00
11053;BME280;55230;42.602;23.470;2022-12-18T09:30:28;94761.31;;;3.49;100.00
11053;BME280;55230;42.602;23.470;2022-12-18T09:32:55;94351.22;;;0.85;100.00
11053;BME280;55230;42.602;23.470;2022-12-18T09:35:22;94746.69;;;3.25;100.00
11053;BME280;55230;42.602;23.470;2022-12-18T09:37:50;94053.34;;;-1.36;100.00
11053;BME280;55230;42.602;23.470;2022-12-18T09:40:21;94348.94;;;0.50;100.00
11053;BME280;55230;42.602;23.470;2022-12-18T09:42:52;94378.59;;;0.92;100.00
11053;BME280;55230;42.602;23.470;2022-12-18T09:45:21;94307.81;;;0.34;100.00
11053;BME280;55230;42.602;23.470;2022-12-18T09:47:57;94703.06;;;2.97;100.00
11053;BME280;55230;42.602;23.470;2022-12-18T09:50:28;94769.59;;;3.33;100.00
11053;BME280;55230;42.602;23.470;2022-12-18T09:52:59;94649.84;;;2.57;100.00
11053;BME280;55230;42.602;23.470;2022-12-18T09:55:33;94725.69;;;3.17;100.00
11053;BME280;55230;42.602;23.470;2022-12-18T09:58:06;94725.22;;;3.08;100.00
11053;BME280;55230;42.602;23.470;2022-12-18T10:00:37;94807.84;;;3.51;100.00
11053;BME280;55230;42.602;23.470;2022-12-18T10:03:10;94444.63;;;0.94;100.00
11053;BME280;55230;42.602;23.470;2022-12-18T10:05:41;94762.38;;;3.37;100.00
11053;BME280;55230;42.602;23.470;2022-12-18T10:08:13;94758.22;;;3.36;99.78
11053;BME280;55230;42.602;23.470;2022-12-18T10:10:48;94755.91;;;3.38;99.34
11053;BME280;55230;42.602;23.470;2022-12-18T10:13:23;94750.22;;;3.43;97.91
11053;BME280;55230;42.602;23.470;2022-12-18T10:16:00;94752.94;;;3.50;97.52
11053;BME280;55230;42.602;23.470;2022-12-18T10:18:40;94756.00;;;3.52;97.80
11053;BME280;55230;42.602;23.470;2022-12-18T10:21:14;94759.56;;;3.67;98.04
11053;BME280;55230;42.602;23.470;2022-12-18T10:23:48;94681.84;;;3.11;97.84
11053;BME280;55230;42.602;23.470;2022-12-18T10:26:19;94781.25;;;3.66;98.26
11053;BME280;55230;42.602;23.470;2022-12-18T10:28:46;94665.81;;;3.04;98.48
11053;BME280;55230;42.602;23.470;2022-12-18T10:31:16;94636.41;;;2.86;98.02
11053;BME280;55230;42.602;23.470;2022-12-18T10:33:43;94742.34;;;3.58;99.04
11053;BME280;55230;42.602;23.470;2022-12-18T10:36:11;94761.00;;;3.58;96.46
11053;BME280;55230;42.602;23.470;2022-12-18T10:38:38;94758.56;;;3.38;95.35
11053;BME280;55230;42.602;23.470;2022-12-18T10:41:08;94758.94;;;3.37;96.32
11053;BME280;55230;42.602;23.470;2022-12-18T10:44:11;94749.75;;;3.27;96.51
11053;BME280;55230;42.602;23.470;2022-12-18T10:46:38;94766.50;;;3.28;96.48
11053;BME280;55230;42.602;23.470;2022-12-18T10:49:05;94701.50;;;2.92;96.57
11053;BME280;55230;42.602;23.470;2022-12-18T10:51:33;94749.94;;;3.55;97.86
11053;BME280;55230;42.602;23.470;2022-12-18T10:54:03;94753.09;;;3.72;96.78
11053;BME280;55230;42.602;23.470;2022-12-18T10:56:34;94159.03;;;-0.61;92.60
11053;BME280;55230;42.602;23.470;2022-12-18T10:59:04;94783.03;;;3.47;92.50
11053;BME280;55230;42.602;23.470;2022-12-18T11:01:45;94677.94;;;2.94;93.79
11053;BME280;55230;42.602;23.470;2022-12-18T11:04:17;94734.03;;;3.12;94.11
11053;BME280;55230;42.602;23.470;2022-12-18T11:06:53;94676.75;;;2.92;95.61
11053;BME280;55230;42.602;23.470;2022-12-18T11:09:23;94745.75;;;3.07;95.74
11053;BME280;55230;42.602;23.470;2022-12-18T11:11:51;94668.78;;;2.95;95.45
11053;BME280;55230;42.602;23.470;2022-12-18T11:14:22;94722.00;;;3.35;96.58
11053;BME280;55230;42.602;23.470;2022-12-18T11:16:53;94778.28;;;3.78;97.01
11053;BME280;55230;42.602;23.470;2022-12-18T11:19:30;94786.19;;;3.60;96.76
11053;BME280;55230;42.602;23.470;2022-12-18T11:22:00;94305.19;;;0.70;96.28
11053;BME280;55230;42.602;23.470;2022-12-18T11:24:31;94202.22;;;0.06;95.06
11053;BME280;55230;42.602;23.470;2022-12-18T11:27:01;94750.06;;;3.77;96.99
11053;BME280;55230;42.602;23.470;2022-12-18T11:29:36;94759.19;;;3.72;94.90
11053;BME280;55230;42.602;23.470;2022-12-18T11:32:27;94768.56;;;3.48;94.32
11053;BME280;55230;42.602;23.470;2022-12-18T11:35:00;94675.31;;;3.01;94.37
11053;BME280;55230;42.602;23.470;2022-12-18T11:37:34;94796.88;;;3.64;94.45
11053;BME280;55230;42.602;23.470;2022-12-18T11:40:06;94713.16;;;3.21;92.87
11053;BME280;55230;42.602;23.470;2022-12-18T11:42:42;94372.13;;;0.53;91.89
11053;BME280;55230;42.602;23.470;2022-12-18T11:45:25;94740.56;;;3.21;89.93
11053;BME280;55230;42.602;23.470;2022-12-18T11:47:57;94808.97;;;3.54;89.99
11053;BME280;55230;42.602;23.470;2022-12-18T11:50:41;94559.47;;;1.47;91.81
11053;BME280;55230;42.602;23.470;2022-12-18T11:53:23;94799.38;;;3.42;90.74
11053;BME280;55230;42.602;23.470;2022-12-18T11:56:22;94772.53;;;3.72;91.21
11053;BME280;55230;42.602;23.470;2022-12-18T11:59:02;94792.88;;;3.36;91.27
11053;BME280;55230;42.602;23.470;2022-12-18T12:01:43;94602.06;;;2.27;92.05
11053;BME280;55230;42.602;23.470;2022-12-18T12:04:54;94673.34;;;2.91;92.21
11053;BME280;55230;42.602;23.470;2022-12-18T12:07:34;94667.69;;;3.00;91.69
11053;BME280;55230;42.602;23.470;2022-12-18T12:10:12;94634.38;;;2.69;91.75
11053;BME280;55230;42.602;23.470;2022-12-18T12:12:52;94648.22;;;2.92;90.71
11053;BME280;55230;42.602;23.470;2022-12-18T12:15:30;94705.50;;;3.19;91.17
11053;BME280;55230;42.602;23.470;2022-12-18T12:18:08;94792.84;;;3.91;91.21
11053;BME280;55230;42.602;23.470;2022-12-18T12:20:49;94561.66;;;1.78;90.36
11053;BME280;55230;42.602;23.470;2022-12-18T12:23:28;94667.25;;;2.94;89.03
11053;BME280;55230;42.602;23.470;2022-12-18T12:26:01;94768.72;;;3.73;89.29
11053;BME280;55230;42.602;23.470;2022-12-18T12:31:40;94742.69;;;3.52;88.60
11053;BME280;55230;42.602;23.470;2022-12-18T12:34:17;94759.19;;;3.69;88.68
11053;BME280;55230;42.602;23.470;2022-12-18T12:36:56;94495.56;;;1.76;87.46
11053;BME280;55230;42.602;23.470;2022-12-18T12:39:31;94747.63;;;3.50;89.14
11053;BME280;55230;42.602;23.470;2022-12-18T12:42:01;94593.00;;;2.38;89.80
11053;BME280;55230;42.602;23.470;2022-12-18T12:44:49;94770.66;;;3.73;90.75
11053;BME280;55230;42.602;23.470;2022-12-18T12:47:21;94493.13;;;2.01;90.98
11053;BME280;55230;42.602;23.470;2022-12-18T12:49:53;94608.91;;;2.75;90.96
11053;BME280;55230;42.602;23.470;2022-12-18T12:52:28;94768.38;;;3.78;91.80
11053;BME280;55230;42.602;23.470;2022-12-18T12:54:57;94662.69;;;2.91;90.82
11053;BME280;55230;42.602;23.470;2022-12-18T12:57:31;94789.00;;;3.85;91.19
11053;BME280;55230;42.602;23.470;2022-12-18T13:00:03;94712.91;;;3.43;90.84
11053;BME280;55230;42.602;23.470;2022-12-18T13:02:35;94781.41;;;3.94;91.75
11053;BME280;55230;42.602;23.470;2022-12-18T13:05:12;94746.28;;;3.78;92.12
11053;BME280;55230;42.602;23.470;2022-12-18T13:07:47;94787.16;;;3.96;91.53
11053;BME280;55230;42.602;23.470;2022-12-18T13:10:30;94681.50;;;3.16;92.18
11053;BME280;55230;42.602;23.470;2022-12-18T13:12:58;94826.41;;;3.92;90.88